Airfield :
LOGIN :

Register | Disclaimer

   EN    FR    IT 

 










Legend :    VFR   Marginal VFR   IFR   Intensive IFR   Very Intensive IFR
Visi :
Ceiling :
>= 8 km
>= 3000ft
5 to 8 km
1000 to 3000 ft
1500m to 5 km
500 to 1000 ft
800 to 1500m
200 to 500 ft
< 800m
< 200 ft
Symbols :   Thunderstorms  Fog  Heavy snow  Heavy precipitations  Wind > 20 kt
SIGMETs :     Misc.  Thunderstorms  Icing  Turbulence  Mountain Waves  Volcanic Ashes






- Airport Elevation : 112 ft
- IATA code : KIR


EIKY - Kerry Farranfore

CURRENT METAR :
  • 291830Z 23022G32KT 9999 OVC016 15/14 Q1000

EXPIRED METARs :
  • 291800Z 23020G32KT 9999 BKN015 OVC022 15/14 Q1000
  • 291730Z 22014KT 9999 -RA BKN019 OVC023 15/14 Q1000 RESHRA
  • 291700Z 21012KT 9999 BKN022 OVC028 15/13 Q1000 RERA
  • 291630Z 21012KT 9999 RA FEW019 OVC025 15/13 Q1000
  • 291600Z 21009KT 9999 RA FEW016 OVC024 15/13 Q1000

TAF TAF EIKY
Valid from the 29 at 18:00 until the 30 at 03:00 UTC


291700Z 2918/3003 22015G25KT 9999 SCT012 BKN017
TEMPO 2918/2923 22022G35KT
TEMPO 2918/3002 -RA BKN010
PROB30
TEMPO 2918/3002 4000 -RADZ BKN007
BECMG 3001/3003 25010KT



MET'MAP, your aeronautical weather chart ! - Copyright ORBIFLY December 2007 - Disclaimer

ORBIFLY MET'MAP TEAM :

Programming & Development : Alexandra Zaïnal
Concept & original design : Baudouin d'Aumeries
Assistance for programming : Marc-Olivier Méhu
Technical & hardware support : Manuel Goepfert

Contact : metmap@orbifly.com




SOURCES & CREDITS :

   NOAA